sensor_id;sensor_type;location;lat;lon;timestamp;pressure;altitude;pressure_sealevel;temperature;humidity
41688;BME280;27371;42.686;23.362;2023-02-07T00:00:15;161094.56;;;-4.27;66.89
41688;BME280;27371;42.686;23.362;2023-02-07T00:02:43;161085.28;;;-4.31;66.47
41688;BME280;27371;42.686;23.362;2023-02-07T00:05:09;161089.28;;;-4.29;66.91
41688;BME280;27371;42.686;23.362;2023-02-07T00:07:35;161103.81;;;-4.23;66.48
41688;BME280;27371;42.686;23.362;2023-02-07T00:12:45;161122.31;;;-4.16;67.58
41688;BME280;27371;42.686;23.362;2023-02-07T00:15:10;161142.16;;;-4.09;67.55
41688;BME280;27371;42.686;23.362;2023-02-07T00:17:36;161168.66;;;-3.98;67.43
41688;BME280;27371;42.686;23.362;2023-02-07T00:20:02;161189.81;;;-3.90;67.65
41688;BME280;27371;42.686;23.362;2023-02-07T00:22:28;161213.63;;;-3.81;67.28
41688;BME280;27371;42.686;23.362;2023-02-07T00:24:53;161224.22;;;-3.77;66.94
41688;BME280;27371;42.686;23.362;2023-02-07T00:27:19;161245.41;;;-3.69;66.67
41688;BME280;27371;42.686;23.362;2023-02-07T00:29:44;161242.72;;;-3.70;66.78
41688;BME280;27371;42.686;23.362;2023-02-07T00:32:10;161229.50;;;-3.75;66.62
41688;BME280;27371;42.686;23.362;2023-02-07T00:34:36;161218.94;;;-3.79;66.82
41688;BME280;27371;42.686;23.362;2023-02-07T00:37:03;161209.69;;;-3.83;66.79
41688;BME280;27371;42.686;23.362;2023-02-07T00:39:29;161208.38;;;-3.83;66.39
41688;BME280;27371;42.686;23.362;2023-02-07T00:41:54;161188.50;;;-3.91;65.19
41688;BME280;27371;42.686;23.362;2023-02-07T00:44:20;161076.03;;;-4.34;65.75
41688;BME280;27371;42.686;23.362;2023-02-07T00:46:46;161017.84;;;-4.57;67.41
41688;BME280;27371;42.686;23.362;2023-02-07T00:49:11;161000.63;;;-4.63;68.74
41688;BME280;27371;42.686;23.362;2023-02-07T00:51:37;161007.22;;;-4.61;69.73
41688;BME280;27371;42.686;23.362;2023-02-07T00:54:02;161039.00;;;-4.49;70.90
41688;BME280;27371;42.686;23.362;2023-02-07T00:56:29;161069.41;;;-4.37;71.34
41688;BME280;27371;42.686;23.362;2023-02-07T00:58:55;161098.50;;;-4.26;70.35
41688;BME280;27371;42.686;23.362;2023-02-07T01:04:09;161117.06;;;-4.18;69.15
41688;BME280;27371;42.686;23.362;2023-02-07T01:06:35;161109.13;;;-4.21;69.23
41688;BME280;27371;42.686;23.362;2023-02-07T01:09:02;161122.31;;;-4.16;69.03
41688;BME280;27371;42.686;23.362;2023-02-07T01:11:29;161111.75;;;-4.20;69.31
41688;BME280;27371;42.686;23.362;2023-02-07T01:13:55;161091.91;;;-4.28;69.04
41688;BME280;27371;42.686;23.362;2023-02-07T01:16:26;161102.50;;;-4.24;69.47
41688;BME280;27371;42.686;23.362;2023-02-07T01:18:52;161094.56;;;-4.27;69.74
41688;BME280;27371;42.686;23.362;2023-02-07T01:21:21;161113.06;;;-4.20;69.84
41688;BME280;27371;42.686;23.362;2023-02-07T01:23:47;161115.75;;;-4.19;69.48
41688;BME280;27371;42.686;23.362;2023-02-07T01:26:13;161119.69;;;-4.17;69.96
41688;BME280;27371;42.686;23.362;2023-02-07T01:28:38;161090.59;;;-4.29;69.57
41688;BME280;27371;42.686;23.362;2023-02-07T01:31:09;161117.06;;;-4.18;69.86
41688;BME280;27371;42.686;23.362;2023-02-07T01:33:36;161122.31;;;-4.16;69.85
41688;BME280;27371;42.686;23.362;2023-02-07T01:36:10;161118.38;;;-4.18;69.93
41688;BME280;27371;42.686;23.362;2023-02-07T01:38:36;161121.00;;;-4.17;69.84
41688;BME280;27371;42.686;23.362;2023-02-07T01:41:02;161114.38;;;-4.19;69.96
41688;BME280;27371;42.686;23.362;2023-02-07T01:43:28;161101.13;;;-4.25;69.59
41688;BME280;27371;42.686;23.362;2023-02-07T01:45:53;161095.88;;;-4.27;70.02
41688;BME280;27371;42.686;23.362;2023-02-07T01:48:23;161106.44;;;-4.22;70.21
41688;BME280;27371;42.686;23.362;2023-02-07T01:50:50;161107.75;;;-4.22;69.57
41688;BME280;27371;42.686;23.362;2023-02-07T01:53:20;161115.75;;;-4.19;69.53
41688;BME280;27371;42.686;23.362;2023-02-07T01:55:47;161130.28;;;-4.13;69.93
41688;BME280;27371;42.686;23.362;2023-02-07T01:58:15;161131.59;;;-4.13;70.23
41688;BME280;27371;42.686;23.362;2023-02-07T02:00:41;161134.22;;;-4.12;70.26
41688;BME280;27371;42.686;23.362;2023-02-07T02:03:07;161138.22;;;-4.10;70.12
41688;BME280;27371;42.686;23.362;2023-02-07T02:05:34;161142.16;;;-4.09;69.82
41688;BME280;27371;42.686;23.362;2023-02-07T02:08:01;161140.84;;;-4.09;69.50
41688;BME280;27371;42.686;23.362;2023-02-07T02:15:55;161130.28;;;-4.13;69.84
41688;BME280;27371;42.686;23.362;2023-02-07T02:18:37;161131.59;;;-4.13;69.55
41688;BME280;27371;42.686;23.362;2023-02-07T02:35:33;161148.78;;;-4.06;70.04
41688;BME280;27371;42.686;23.362;2023-02-07T02:43:12;161140.84;;;-4.09;70.11
41688;BME280;27371;42.686;23.362;2023-02-07T02:45:47;161140.84;;;-4.09;69.90
41688;BME280;27371;42.686;23.362;2023-02-07T02:48:14;161131.59;;;-4.13;70.54
41688;BME280;27371;42.686;23.362;2023-02-07T02:50:45;161126.31;;;-4.15;69.86
41688;BME280;27371;42.686;23.362;2023-02-07T02:53:12;161103.81;;;-4.23;70.10
41688;BME280;27371;42.686;23.362;2023-02-07T02:55:51;161099.81;;;-4.25;70.29
41688;BME280;27371;42.686;23.362;2023-02-07T03:01:16;161093.22;;;-4.28;69.35
41688;BME280;27371;42.686;23.362;2023-02-07T03:06:27;161099.81;;;-4.25;68.89
41688;BME280;27371;42.686;23.362;2023-02-07T03:09:16;161089.28;;;-4.29;68.93
41688;BME280;27371;42.686;23.362;2023-02-07T03:11:57;161076.03;;;-4.34;68.76
41688;BME280;27371;42.686;23.362;2023-02-07T03:14:44;161053.56;;;-4.43;69.07
41688;BME280;27371;42.686;23.362;2023-02-07T03:17:20;161073.41;;;-4.35;69.06
41688;BME280;27371;42.686;23.362;2023-02-07T03:22:28;161050.88;;;-4.44;69.35
41688;BME280;27371;42.686;23.362;2023-02-07T03:24:57;161046.94;;;-4.45;69.17
41688;BME280;27371;42.686;23.362;2023-02-07T03:27:25;161041.63;;;-4.48;69.02
41688;BME280;27371;42.686;23.362;2023-02-07T03:29:53;161042.94;;;-4.47;69.49
41688;BME280;27371;42.686;23.362;2023-02-07T03:32:27;161037.69;;;-4.49;69.67
41688;BME280;27371;42.686;23.362;2023-02-07T03:35:03;161021.78;;;-4.55;69.33
41688;BME280;27371;42.686;23.362;2023-02-07T03:37:39;161050.88;;;-4.44;69.63
41688;BME280;27371;42.686;23.362;2023-02-07T03:40:07;161031.06;;;-4.52;69.61
41688;BME280;27371;42.686;23.362;2023-02-07T03:42:48;161011.22;;;-4.59;69.44
41688;BME280;27371;42.686;23.362;2023-02-07T03:45:17;161017.84;;;-4.57;69.33
41688;BME280;27371;42.686;23.362;2023-02-07T03:47:44;161019.16;;;-4.56;69.70
41688;BME280;27371;42.686;23.362;2023-02-07T03:50:10;161029.72;;;-4.52;70.06
41688;BME280;27371;42.686;23.362;2023-02-07T03:52:35;161024.47;;;-4.54;69.43
41688;BME280;27371;42.686;23.362;2023-02-07T03:55:01;161036.31;;;-4.50;69.44
41688;BME280;27371;42.686;23.362;2023-02-07T03:57:26;161031.06;;;-4.52;68.89
41688;BME280;27371;42.686;23.362;2023-02-07T03:59:52;161027.09;;;-4.53;69.39
41688;BME280;27371;42.686;23.362;2023-02-07T04:02:17;161039.00;;;-4.49;69.24
41688;BME280;27371;42.686;23.362;2023-02-07T04:04:43;161069.41;;;-4.37;69.57
41688;BME280;27371;42.686;23.362;2023-02-07T04:07:09;161091.91;;;-4.28;69.40
41688;BME280;27371;42.686;23.362;2023-02-07T04:09:35;161107.75;;;-4.22;68.51
41688;BME280;27371;42.686;23.362;2023-02-07T04:12:00;161099.81;;;-4.25;68.67
41688;BME280;27371;42.686;23.362;2023-02-07T04:14:26;161138.22;;;-4.10;68.19
41688;BME280;27371;42.686;23.362;2023-02-07T04:16:51;161167.34;;;-3.99;68.38
41688;BME280;27371;42.686;23.362;2023-02-07T04:19:17;161180.56;;;-3.94;67.20
41688;BME280;27371;42.686;23.362;2023-02-07T04:21:42;161193.75;;;-3.89;67.51
41688;BME280;27371;42.686;23.362;2023-02-07T04:24:08;161199.06;;;-3.87;67.15
41688;BME280;27371;42.686;23.362;2023-02-07T04:26:34;161176.56;;;-3.95;66.07
41688;BME280;27371;42.686;23.362;2023-02-07T04:29:00;161101.13;;;-4.25;66.03
41688;BME280;27371;42.686;23.362;2023-02-07T04:31:26;161048.25;;;-4.45;66.23
41688;BME280;27371;42.686;23.362;2023-02-07T04:33:51;160998.00;;;-4.64;67.60
41688;BME280;27371;42.686;23.362;2023-02-07T04:36:17;160994.00;;;-4.66;68.81
41688;BME280;27371;42.686;23.362;2023-02-07T04:38:42;161008.59;;;-4.60;69.71
41688;BME280;27371;42.686;23.362;2023-02-07T04:41:09;161033.69;;;-4.51;69.73
41688;BME280;27371;42.686;23.362;2023-02-07T04:43:36;161076.03;;;-4.34;69.77
41688;BME280;27371;42.686;23.362;2023-02-07T04:46:03;161094.56;;;-4.27;69.87
41688;BME280;27371;42.686;23.362;2023-02-07T04:48:29;161113.06;;;-4.20;69.21
41688;BME280;27371;42.686;23.362;2023-02-07T04:50:55;161110.44;;;-4.21;69.02
41688;BME280;27371;42.686;23.362;2023-02-07T04:53:21;161106.44;;;-4.22;69.13
41688;BME280;27371;42.686;23.362;2023-02-07T04:55:47;161126.31;;;-4.15;68.89
41688;BME280;27371;42.686;23.362;2023-02-07T04:58:13;161105.13;;;-4.23;68.82
41688;BME280;27371;42.686;23.362;2023-02-07T05:00:38;161076.03;;;-4.34;69.34
41688;BME280;27371;42.686;23.362;2023-02-07T05:03:04;161056.19;;;-4.42;69.55
41688;BME280;27371;42.686;23.362;2023-02-07T05:05:29;161056.19;;;-4.42;69.84
41688;BME280;27371;42.686;23.362;2023-02-07T05:07:55;161052.22;;;-4.43;70.37
41688;BME280;27371;42.686;23.362;2023-02-07T05:10:21;161054.88;;;-4.42;70.57
41688;BME280;27371;42.686;23.362;2023-02-07T05:12:46;161065.41;;;-4.38;70.11
41688;BME280;27371;42.686;23.362;2023-02-07T05:15:11;161293.03;;;-3.50;76.78
41688;BME280;27371;42.686;23.362;2023-02-07T05:17:37;161228.19;;;-3.75;70.59
41688;BME280;27371;42.686;23.362;2023-02-07T05:20:04;161155.41;;;-4.04;69.65
41688;BME280;27371;42.686;23.362;2023-02-07T05:22:30;161110.44;;;-4.21;69.91
41688;BME280;27371;42.686;23.362;2023-02-07T05:24:55;161080.03;;;-4.33;70.42
41688;BME280;27371;42.686;23.362;2023-02-07T05:27:21;161097.19;;;-4.26;71.00
41688;BME280;27371;42.686;23.362;2023-02-07T05:29:46;161103.81;;;-4.23;70.88
41688;BME280;27371;42.686;23.362;2023-02-07T05:32:13;161118.38;;;-4.18;70.10
41688;BME280;27371;42.686;23.362;2023-02-07T05:34:58;161130.28;;;-4.13;70.33
41688;BME280;27371;42.686;23.362;2023-02-07T05:37:24;161136.91;;;-4.11;69.90
41688;BME280;27371;42.686;23.362;2023-02-07T05:39:50;161138.22;;;-4.10;69.77
41688;BME280;27371;42.686;23.362;2023-02-07T05:42:15;161127.63;;;-4.14;69.04
41688;BME280;27371;42.686;23.362;2023-02-07T05:44:41;161111.75;;;-4.20;69.04
41688;BME280;27371;42.686;23.362;2023-02-07T05:47:06;161132.91;;;-4.12;68.86
41688;BME280;27371;42.686;23.362;2023-02-07T05:49:32;161131.59;;;-4.13;69.11
41688;BME280;27371;42.686;23.362;2023-02-07T05:51:58;161130.28;;;-4.13;68.89
41688;BME280;27371;42.686;23.362;2023-02-07T05:54:23;161128.94;;;-4.14;69.42
41688;BME280;27371;42.686;23.362;2023-02-07T05:56:49;161131.59;;;-4.13;68.97
41688;BME280;27371;42.686;23.362;2023-02-07T05:59:14;161123.66;;;-4.16;68.81
41688;BME280;27371;42.686;23.362;2023-02-07T06:01:40;161086.59;;;-4.30;69.14
41688;BME280;27371;42.686;23.362;2023-02-07T06:04:05;161136.91;;;-4.11;68.95
41688;BME280;27371;42.686;23.362;2023-02-07T06:06:31;161148.78;;;-4.06;68.87
41688;BME280;27371;42.686;23.362;2023-02-07T06:08:56;161151.47;;;-4.05;68.53
41688;BME280;27371;42.686;23.362;2023-02-07T06:11:22;161155.41;;;-4.04;68.54
41688;BME280;27371;42.686;23.362;2023-02-07T06:13:47;161154.09;;;-4.04;68.42
41688;BME280;27371;42.686;23.362;2023-02-07T06:16:13;161163.34;;;-4.00;68.46
41688;BME280;27371;42.686;23.362;2023-02-07T06:18:38;161172.63;;;-3.97;68.67
41688;BME280;27371;42.686;23.362;2023-02-07T06:21:04;161187.19;;;-3.91;68.34
41688;BME280;27371;42.686;23.362;2023-02-07T06:23:29;161189.81;;;-3.90;67.94
41688;BME280;27371;42.686;23.362;2023-02-07T06:25:55;161191.13;;;-3.90;67.32
41688;BME280;27371;42.686;23.362;2023-02-07T06:28:21;161197.75;;;-3.87;67.15
41688;BME280;27371;42.686;23.362;2023-02-07T06:30:46;161181.88;;;-3.93;67.11
41688;BME280;27371;42.686;23.362;2023-02-07T06:33:12;161191.13;;;-3.90;66.82
41688;BME280;27371;42.686;23.362;2023-02-07T06:35:37;161338.06;;;-3.33;75.48
41688;BME280;27371;42.686;23.362;2023-02-07T06:38:03;161398.94;;;-3.09;68.39
41688;BME280;27371;42.686;23.362;2023-02-07T06:40:28;161360.56;;;-3.24;66.23
41688;BME280;27371;42.686;23.362;2023-02-07T06:42:54;161298.34;;;-3.48;65.81
41688;BME280;27371;42.686;23.362;2023-02-07T06:45:19;161277.16;;;-3.56;65.58
41688;BME280;27371;42.686;23.362;2023-02-07T06:47:48;161287.78;;;-3.52;66.30
41688;BME280;27371;42.686;23.362;2023-02-07T06:50:14;161283.78;;;-3.54;66.10
41688;BME280;27371;42.686;23.362;2023-02-07T06:52:39;161252.03;;;-3.66;65.45
41688;BME280;27371;42.686;23.362;2023-02-07T06:55:05;161236.13;;;-3.72;65.57
41688;BME280;27371;42.686;23.362;2023-02-07T06:57:30;161246.72;;;-3.68;65.93
41688;BME280;27371;42.686;23.362;2023-02-07T06:59:56;161259.97;;;-3.63;65.50
41688;BME280;27371;42.686;23.362;2023-02-07T07:02:21;161241.41;;;-3.70;65.53
41688;BME280;27371;42.686;23.362;2023-02-07T07:04:47;161269.22;;;-3.60;66.21
41688;BME280;27371;42.686;23.362;2023-02-07T07:07:14;161271.84;;;-3.59;65.95
41688;BME280;27371;42.686;23.362;2023-02-07T07:09:39;161267.91;;;-3.60;65.69
41688;BME280;27371;42.686;23.362;2023-02-07T07:12:05;161255.97;;;-3.65;65.27
41688;BME280;27371;42.686;23.362;2023-02-07T07:14:31;161259.97;;;-3.63;65.06
41688;BME280;27371;42.686;23.362;2023-02-07T07:16:57;161246.72;;;-3.68;64.76
41688;BME280;27371;42.686;23.362;2023-02-07T07:19:22;161240.09;;;-3.71;64.61
41688;BME280;27371;42.686;23.362;2023-02-07T07:21:48;161246.72;;;-3.68;64.91
41688;BME280;27371;42.686;23.362;2023-02-07T07:24:13;161254.66;;;-3.65;65.08
41688;BME280;27371;42.686;23.362;2023-02-07T07:26:39;161242.72;;;-3.70;65.10
41688;BME280;27371;42.686;23.362;2023-02-07T07:29:04;161263.91;;;-3.62;64.59
41688;BME280;27371;42.686;23.362;2023-02-07T07:31:32;161289.09;;;-3.52;65.60
41688;BME280;27371;42.686;23.362;2023-02-07T07:33:58;161307.59;;;-3.45;65.05
41688;BME280;27371;42.686;23.362;2023-02-07T07:36:23;161322.13;;;-3.39;65.00
41688;BME280;27371;42.686;23.362;2023-02-07T07:38:49;161352.63;;;-3.27;64.57
41688;BME280;27371;42.686;23.362;2023-02-07T07:41:14;161367.19;;;-3.22;64.52
41688;BME280;27371;42.686;23.362;2023-02-07T07:43:40;161376.44;;;-3.18;64.48
41688;BME280;27371;42.686;23.362;2023-02-07T07:46:05;161409.56;;;-3.05;64.30
41688;BME280;27371;42.686;23.362;2023-02-07T07:48:33;161416.19;;;-3.03;63.43
41688;BME280;27371;42.686;23.362;2023-02-07T07:50:58;161428.06;;;-2.98;63.49
41688;BME280;27371;42.686;23.362;2023-02-07T07:53:24;161457.19;;;-2.87;63.55
41688;BME280;27371;42.686;23.362;2023-02-07T07:55:51;161461.19;;;-2.85;62.79
41688;BME280;27371;42.686;23.362;2023-02-07T07:58:17;161499.59;;;-2.71;62.56
41688;BME280;27371;42.686;23.362;2023-02-07T08:00:43;161544.66;;;-2.53;62.75
41688;BME280;27371;42.686;23.362;2023-02-07T08:03:09;161564.47;;;-2.46;61.72
41688;BME280;27371;42.686;23.362;2023-02-07T08:05:35;161556.53;;;-2.49;61.84
41688;BME280;27371;42.686;23.362;2023-02-07T08:08:01;161540.66;;;-2.55;61.47
41688;BME280;27371;42.686;23.362;2023-02-07T08:10:26;161547.28;;;-2.52;61.27
41688;BME280;27371;42.686;23.362;2023-02-07T08:12:52;161604.25;;;-2.30;61.31
41688;BME280;27371;42.686;23.362;2023-02-07T08:15:17;161653.28;;;-2.11;60.75
41688;BME280;27371;42.686;23.362;2023-02-07T08:17:43;161718.22;;;-1.86;59.90
41688;BME280;27371;42.686;23.362;2023-02-07T08:20:08;161772.56;;;-1.65;59.69
41688;BME280;27371;42.686;23.362;2023-02-07T08:22:35;161871.94;;;-1.27;58.47
41688;BME280;27371;42.686;23.362;2023-02-07T08:25:01;161931.66;;;-1.04;57.68
41688;BME280;27371;42.686;23.362;2023-02-07T08:27:26;162020.47;;;-0.70;56.79
41688;BME280;27371;42.686;23.362;2023-02-07T08:29:52;162060.31;;;-0.54;55.14
41688;BME280;27371;42.686;23.362;2023-02-07T08:32:17;162007.22;;;-0.75;53.99
41688;BME280;27371;42.686;23.362;2023-02-07T08:34:43;161968.78;;;-0.90;54.19
41688;BME280;27371;42.686;23.362;2023-02-07T08:37:09;161962.13;;;-0.92;54.18
41688;BME280;27371;42.686;23.362;2023-02-07T08:39:35;161966.13;;;-0.91;54.83
41688;BME280;27371;42.686;23.362;2023-02-07T08:42:02;161951.56;;;-0.96;54.64
41688;BME280;27371;42.686;23.362;2023-02-07T08:44:29;161935.59;;;-1.02;55.04
41688;BME280;27371;42.686;23.362;2023-02-07T08:46:55;161950.19;;;-0.97;55.38
41688;BME280;27371;42.686;23.362;2023-02-07T08:49:21;161956.81;;;-0.94;55.23
41688;BME280;27371;42.686;23.362;2023-02-07T08:51:46;161956.81;;;-0.94;55.56
41688;BME280;27371;42.686;23.362;2023-02-07T08:54:12;161938.28;;;-1.01;55.21
41688;BME280;27371;42.686;23.362;2023-02-07T08:56:37;161921.00;;;-1.08;55.45
41688;BME280;27371;42.686;23.362;2023-02-07T08:59:03;161914.38;;;-1.10;56.59
41688;BME280;27371;42.686;23.362;2023-02-07T09:01:28;161898.47;;;-1.17;55.91
41688;BME280;27371;42.686;23.362;2023-02-07T09:03:54;161917.06;;;-1.09;56.52
41688;BME280;27371;42.686;23.362;2023-02-07T09:06:22;161913.06;;;-1.11;57.01
41688;BME280;27371;42.686;23.362;2023-02-07T09:08:48;161926.34;;;-1.06;57.84
41688;BME280;27371;42.686;23.362;2023-02-07T09:11:13;161934.28;;;-1.03;56.73
41688;BME280;27371;42.686;23.362;2023-02-07T09:13:40;161906.44;;;-1.14;56.46
41688;BME280;27371;42.686;23.362;2023-02-07T09:16:07;161910.44;;;-1.12;56.08
41688;BME280;27371;42.686;23.362;2023-02-07T09:18:32;161868.00;;;-1.28;56.82
41688;BME280;27371;42.686;23.362;2023-02-07T09:20:59;161858.72;;;-1.32;57.48
41688;BME280;27371;42.686;23.362;2023-02-07T09:23:24;161830.88;;;-1.43;58.11
41688;BME280;27371;42.686;23.362;2023-02-07T09:25:51;161950.19;;;-0.97;58.23
41688;BME280;27371;42.686;23.362;2023-02-07T09:28:18;162012.53;;;-0.73;56.23
41688;BME280;27371;42.686;23.362;2023-02-07T09:30:45;162024.47;;;-0.68;55.15
41688;BME280;27371;42.686;23.362;2023-02-07T09:33:11;162024.47;;;-0.68;55.59
41688;BME280;27371;42.686;23.362;2023-02-07T09:35:39;162036.38;;;-0.63;54.67
41688;BME280;27371;42.686;23.362;2023-02-07T09:38:05;161971.41;;;-0.88;54.88
41688;BME280;27371;42.686;23.362;2023-02-07T09:40:32;161997.94;;;-0.78;55.08
41688;BME280;27371;42.686;23.362;2023-02-07T09:43:06;161987.34;;;-0.82;55.16
41688;BME280;27371;42.686;23.362;2023-02-07T09:45:41;161968.78;;;-0.90;55.73
41688;BME280;27371;42.686;23.362;2023-02-07T09:48:24;161982.03;;;-0.84;56.43
41688;BME280;27371;42.686;23.362;2023-02-07T09:50:57;161978.03;;;-0.86;56.19
41688;BME280;27371;42.686;23.362;2023-02-07T09:53:26;161997.94;;;-0.78;56.56
41688;BME280;27371;42.686;23.362;2023-02-07T09:55:57;161988.69;;;-0.82;56.23
41688;BME280;27371;42.686;23.362;2023-02-07T10:01:13;161975.41;;;-0.87;56.91
41688;BME280;27371;42.686;23.362;2023-02-07T10:04:33;161939.59;;;-1.01;56.53
41688;BME280;27371;42.686;23.362;2023-02-07T10:06:33;161921.00;;;-1.08;56.57
41688;BME280;27371;42.686;23.362;2023-02-07T10:09:00;161885.22;;;-1.22;57.43
41688;BME280;27371;42.686;23.362;2023-02-07T10:31:14;161828.19;;;-1.44;56.71
41688;BME280;27371;42.686;23.362;2023-02-07T10:33:50;161838.84;;;-1.40;57.23
41688;BME280;27371;42.686;23.362;2023-02-07T10:36:17;161885.22;;;-1.22;58.93
41688;BME280;27371;42.686;23.362;2023-02-07T10:39:03;161938.28;;;-1.01;58.11
41688;BME280;27371;42.686;23.362;2023-02-07T10:41:36;161959.50;;;-0.93;56.99
41688;BME280;27371;42.686;23.362;2023-02-07T10:44:03;161968.78;;;-0.90;57.42
41688;BME280;27371;42.686;23.362;2023-02-07T10:46:30;162004.56;;;-0.76;57.25
41688;BME280;27371;42.686;23.362;2023-02-07T10:48:56;162008.59;;;-0.74;57.13
41688;BME280;27371;42.686;23.362;2023-02-07T10:51:43;162003.25;;;-0.76;56.70
41688;BME280;27371;42.686;23.362;2023-02-07T10:54:20;162017.84;;;-0.71;57.10
41688;BME280;27371;42.686;23.362;2023-02-07T10:56:57;162003.25;;;-0.76;56.82
41688;BME280;27371;42.686;23.362;2023-02-07T10:59:38;162015.22;;;-0.72;56.50
41688;BME280;27371;42.686;23.362;2023-02-07T11:07:32;161968.78;;;-0.90;54.31
41688;BME280;27371;42.686;23.362;2023-02-07T11:10:18;162001.94;;;-0.77;53.76
41688;BME280;27371;42.686;23.362;2023-02-07T11:12:45;162053.66;;;-0.57;54.15
41688;BME280;27371;42.686;23.362;2023-02-07T11:15:18;162082.84;;;-0.46;53.10
41688;BME280;27371;42.686;23.362;2023-02-07T11:17:48;162108.06;;;-0.36;52.92
41688;BME280;27371;42.686;23.362;2023-02-07T11:20:30;162134.56;;;-0.26;53.21
41688;BME280;27371;42.686;23.362;2023-02-07T11:22:58;162149.16;;;-0.20;52.57
41688;BME280;27371;42.686;23.362;2023-02-07T11:25:33;162146.53;;;-0.21;52.50
41688;BME280;27371;42.686;23.362;2023-02-07T11:28:00;162129.25;;;-0.28;51.80
41688;BME280;27371;42.686;23.362;2023-02-07T11:30:28;162064.25;;;-0.53;51.62
41688;BME280;27371;42.686;23.362;2023-02-07T11:33:00;162043.03;;;-0.61;52.61
41688;BME280;27371;42.686;23.362;2023-02-07T11:35:26;162027.13;;;-0.67;52.75
41688;BME280;27371;42.686;23.362;2023-02-07T11:38:31;162035.06;;;-0.64;52.50
41688;BME280;27371;42.686;23.362;2023-02-07T11:40:50;162036.38;;;-0.63;52.99
41688;BME280;27371;42.686;23.362;2023-02-07T11:43:18;162029.81;;;-0.66;53.04
41688;BME280;27371;42.686;23.362;2023-02-07T11:45:58;162024.47;;;-0.68;53.49
41688;BME280;27371;42.686;23.362;2023-02-07T11:48:30;162017.84;;;-0.71;53.17
41688;BME280;27371;42.686;23.362;2023-02-07T11:51:01;161997.94;;;-0.78;52.37
41688;BME280;27371;42.686;23.362;2023-02-07T11:53:38;161990.00;;;-0.81;52.96
41688;BME280;27371;42.686;23.362;2023-02-07T11:56:05;162004.56;;;-0.76;53.63
41688;BME280;27371;42.686;23.362;2023-02-07T11:58:39;161984.66;;;-0.83;53.80
41688;BME280;27371;42.686;23.362;2023-02-07T12:01:14;162029.81;;;-0.66;53.82
41688;BME280;27371;42.686;23.362;2023-02-07T12:04:07;162011.22;;;-0.73;53.25
41688;BME280;27371;42.686;23.362;2023-02-07T12:09:15;161994.00;;;-0.80;52.58
41688;BME280;27371;42.686;23.362;2023-02-07T12:11:43;162001.94;;;-0.77;52.71
41688;BME280;27371;42.686;23.362;2023-02-07T12:14:34;162029.81;;;-0.66;53.45
41688;BME280;27371;42.686;23.362;2023-02-07T12:17:05;162027.13;;;-0.67;53.36
41688;BME280;27371;42.686;23.362;2023-02-07T12:20:30;161997.94;;;-0.78;53.76
41688;BME280;27371;42.686;23.362;2023-02-07T12:22:59;162008.59;;;-0.74;53.61
41688;BME280;27371;42.686;23.362;2023-02-07T12:25:35;162008.59;;;-0.74;53.67
41688;BME280;27371;42.686;23.362;2023-02-07T12:28:11;162036.38;;;-0.63;53.88
41688;BME280;27371;42.686;23.362;2023-02-07T12:30:45;162025.81;;;-0.68;53.84
41688;BME280;27371;42.686;23.362;2023-02-07T12:33:29;162060.31;;;-0.54;53.70
41688;BME280;27371;42.686;23.362;2023-02-07T12:38:45;162066.94;;;-0.52;53.07
41688;BME280;27371;42.686;23.362;2023-02-07T12:41:15;162045.72;;;-0.60;52.68
41688;BME280;27371;42.686;23.362;2023-02-07T12:50:02;162106.72;;;-0.36;52.83
41688;BME280;27371;42.686;23.362;2023-02-07T12:55:36;162086.84;;;-0.44;51.93
41688;BME280;27371;42.686;23.362;2023-02-07T13:01:19;162125.31;;;-0.29;53.01
41688;BME280;27371;42.686;23.362;2023-02-07T13:07:26;162123.97;;;-0.30;50.58
41688;BME280;27371;42.686;23.362;2023-02-07T13:12:42;162072.25;;;-0.50;51.37
41688;BME280;27371;42.686;23.362;2023-02-07T13:21:57;162080.22;;;-0.47;52.37
41688;BME280;27371;42.686;23.362;2023-02-07T13:24:26;162062.94;;;-0.53;52.12
41688;BME280;27371;42.686;23.362;2023-02-07T13:26:56;162070.88;;;-0.50;52.99
41688;BME280;27371;42.686;23.362;2023-02-07T13:29:23;162054.97;;;-0.56;53.12
41688;BME280;27371;42.686;23.362;2023-02-07T13:31:55;162013.84;;;-0.72;53.46
41688;BME280;27371;42.686;23.362;2023-02-07T13:34:25;162001.94;;;-0.77;53.84
41688;BME280;27371;42.686;23.362;2023-02-07T13:36:52;161997.94;;;-0.78;54.04
41688;BME280;27371;42.686;23.362;2023-02-07T13:39:23;162008.59;;;-0.74;54.21
41688;BME280;27371;42.686;23.362;2023-02-07T13:42:32;162015.22;;;-0.72;54.18
41688;BME280;27371;42.686;23.362;2023-02-07T13:45:05;162032.44;;;-0.65;54.11
41688;BME280;27371;42.686;23.362;2023-02-07T13:53:45;162082.84;;;-0.46;53.20
41688;BME280;27371;42.686;23.362;2023-02-07T13:56:15;162118.66;;;-0.32;53.45
41688;BME280;27371;42.686;23.362;2023-02-07T13:59:00;162154.50;;;-0.18;53.05
41688;BME280;27371;42.686;23.362;2023-02-07T14:01:57;162150.50;;;-0.19;51.44
41688;BME280;27371;42.686;23.362;2023-02-07T14:04:23;162134.56;;;-0.26;51.33
41688;BME280;27371;42.686;23.362;2023-02-07T14:09:44;162166.44;;;-0.13;51.38
41688;BME280;27371;42.686;23.362;2023-02-07T14:12:21;162143.91;;;-0.22;52.11
41688;BME280;27371;42.686;23.362;2023-02-07T14:14:48;162069.56;;;-0.51;52.33
41688;BME280;27371;42.686;23.362;2023-02-07T14:19:56;162058.97;;;-0.55;51.52
41688;BME280;27371;42.686;23.362;2023-02-07T14:23:11;162069.56;;;-0.51;51.73
41688;BME280;27371;42.686;23.362;2023-02-07T14:30:36;162069.56;;;-0.51;51.01
41688;BME280;27371;42.686;23.362;2023-02-07T14:33:16;162069.56;;;-0.51;51.57
41688;BME280;27371;42.686;23.362;2023-02-07T14:38:38;162031.13;;;-0.65;51.79
41688;BME280;27371;42.686;23.362;2023-02-07T14:41:07;162040.38;;;-0.62;51.91
41688;BME280;27371;42.686;23.362;2023-02-07T14:43:54;162027.13;;;-0.67;51.72
41688;BME280;27371;42.686;23.362;2023-02-07T14:46:47;162016.53;;;-0.71;52.18